KAVX/AVX METAR and TAF weather

Enter ICAO airport designator
Station Type Date Time Source
KAVX METAR 2019/10/19 06:51 UTC NOAA

KAVX 190651Z AUTO 28007KT 10SM CLR 20/00 A2994 RMK AO2 SLP115 T02000000


Station Type Date Time Source
KAVX Decoded METAR 2019/10/19 06:51 UTC NOAA

AVALON CATALINA AIRPORT, CA, United States (KAVX) 33-24N 118-25W 482M
Oct 19, 2019 - 02:51 AM EDT / 2019.10.19 0651 UTC
Wind: from the W (280 degrees) at 8 MPH (7 KT):0
Visibility: 10 mile(s):0
Sky conditions: clear
Temperature: 68.0 F (20.0 C)
Dew Point: 32.0 F (0.0 C)
Relative Humidity: 26%
Pressure (altimeter): 29.94 in. Hg (1013 hPa)
ob: KAVX 190651Z AUTO 28007KT 10SM CLR 20/00 A2994 RMK AO2 SLP115 T02000000
cycle: 7

Station Type Date Time Source
KAVX TAF UTC NOAA

Error!

Example: see airport list